Morrisville, Pennsylvania
Current Conditions -  °F | °C
As of 9:16 AM on Friday 19 Dec 2014 (Local Time) from KTTN Reporting Station
Overcast Overcast  
Wind Chill: 29°   Ceiling: 2900
Heat Index: 36°   Visibility: 10mi
Dew Point: 26°   Wind: 9mph
Humidity: 67%   Direction: 300°WNW
Pressure: 30.06"   Gusts: NA
Location:  40.21°N, 74.79°W
Report Text: KTTN 191416Z 30008KT 260V320 10SM OVC029 02/M03 A3006 RMK AO2 T00221033
Loading
Personal Weather Stations






























Interactive Weather Map New forecast layout! Learn more

10-Day Weather Forecast

Advertisements
Track Severe Weather on mobile